sensor_id;sensor_type;location;lat;lon;timestamp;P1;durP1;ratioP1;P2;durP2;ratioP2
17424;SDS011;8830;50.978;5.058;2023-04-03T00:02:10;5.77;;;2.90;;
17424;SDS011;8830;50.978;5.058;2023-04-03T00:04:38;3.83;;;3.30;;
17424;SDS011;8830;50.978;5.058;2023-04-03T00:07:06;3.47;;;3.17;;
17424;SDS011;8830;50.978;5.058;2023-04-03T00:09:33;3.97;;;3.30;;
17424;SDS011;8830;50.978;5.058;2023-04-03T00:12:00;4.50;;;3.47;;
17424;SDS011;8830;50.978;5.058;2023-04-03T00:14:27;5.73;;;3.47;;
17424;SDS011;8830;50.978;5.058;2023-04-03T00:16:54;3.50;;;3.20;;
17424;SDS011;8830;50.978;5.058;2023-04-03T00:19:21;4.33;;;3.13;;
17424;SDS011;8830;50.978;5.058;2023-04-03T00:21:49;4.50;;;3.17;;
17424;SDS011;8830;50.978;5.058;2023-04-03T00:24:18;4.57;;;3.60;;
17424;SDS011;8830;50.978;5.058;2023-04-03T00:26:46;4.87;;;3.17;;
17424;SDS011;8830;50.978;5.058;2023-04-03T00:29:13;4.00;;;3.33;;
17424;SDS011;8830;50.978;5.058;2023-04-03T00:31:40;4.17;;;3.17;;
17424;SDS011;8830;50.978;5.058;2023-04-03T00:34:07;3.53;;;3.03;;
17424;SDS011;8830;50.978;5.058;2023-04-03T00:36:34;3.30;;;3.00;;
17424;SDS011;8830;50.978;5.058;2023-04-03T00:39:02;3.40;;;3.03;;
17424;SDS011;8830;50.978;5.058;2023-04-03T00:41:30;4.10;;;3.07;;
17424;SDS011;8830;50.978;5.058;2023-04-03T00:43:57;4.23;;;3.43;;
17424;SDS011;8830;50.978;5.058;2023-04-03T00:46:24;6.30;;;3.80;;
17424;SDS011;8830;50.978;5.058;2023-04-03T00:48:51;3.33;;;2.77;;
17424;SDS011;8830;50.978;5.058;2023-04-03T00:51:19;3.57;;;3.23;;
17424;SDS011;8830;50.978;5.058;2023-04-03T00:53:49;3.87;;;3.27;;
17424;SDS011;8830;50.978;5.058;2023-04-03T00:56:21;3.57;;;3.27;;
17424;SDS011;8830;50.978;5.058;2023-04-03T00:58:51;4.20;;;3.60;;
17424;SDS011;8830;50.978;5.058;2023-04-03T01:01:21;4.20;;;3.43;;
17424;SDS011;8830;50.978;5.058;2023-04-03T01:03:50;4.50;;;3.70;;
17424;SDS011;8830;50.978;5.058;2023-04-03T01:06:19;15.53;;;3.83;;
17424;SDS011;8830;50.978;5.058;2023-04-03T01:08:49;4.17;;;3.60;;
17424;SDS011;8830;50.978;5.058;2023-04-03T01:11:17;4.80;;;3.70;;
17424;SDS011;8830;50.978;5.058;2023-04-03T01:13:45;4.67;;;3.40;;
17424;SDS011;8830;50.978;5.058;2023-04-03T01:16:12;4.27;;;3.47;;
17424;SDS011;8830;50.978;5.058;2023-04-03T01:18:39;5.57;;;3.70;;
17424;SDS011;8830;50.978;5.058;2023-04-03T01:21:30;4.47;;;3.60;;
17424;SDS011;8830;50.978;5.058;2023-04-03T01:24:33;4.77;;;3.80;;
17424;SDS011;8830;50.978;5.058;2023-04-03T01:27:01;8.20;;;3.77;;
17424;SDS011;8830;50.978;5.058;2023-04-03T01:29:32;5.50;;;3.60;;
17424;SDS011;8830;50.978;5.058;2023-04-03T01:32:01;3.97;;;3.60;;
17424;SDS011;8830;50.978;5.058;2023-04-03T01:34:32;4.27;;;3.37;;
17424;SDS011;8830;50.978;5.058;2023-04-03T01:36:59;3.63;;;3.30;;
17424;SDS011;8830;50.978;5.058;2023-04-03T01:39:26;5.60;;;4.10;;
17424;SDS011;8830;50.978;5.058;2023-04-03T01:41:53;6.60;;;4.30;;
17424;SDS011;8830;50.978;5.058;2023-04-03T01:44:20;5.13;;;3.57;;
17424;SDS011;8830;50.978;5.058;2023-04-03T01:46:47;5.67;;;3.57;;
17424;SDS011;8830;50.978;5.058;2023-04-03T01:49:16;5.60;;;3.70;;
17424;SDS011;8830;50.978;5.058;2023-04-03T01:51:43;4.93;;;3.27;;
17424;SDS011;8830;50.978;5.058;2023-04-03T01:54:10;7.20;;;3.80;;
17424;SDS011;8830;50.978;5.058;2023-04-03T01:56:37;5.10;;;4.00;;
17424;SDS011;8830;50.978;5.058;2023-04-03T01:59:04;5.13;;;3.87;;
17424;SDS011;8830;50.978;5.058;2023-04-03T02:01:31;4.43;;;4.03;;
17424;SDS011;8830;50.978;5.058;2023-04-03T02:03:57;4.43;;;3.90;;
17424;SDS011;8830;50.978;5.058;2023-04-03T02:06:26;4.30;;;3.90;;
17424;SDS011;8830;50.978;5.058;2023-04-03T02:08:53;4.10;;;3.80;;
17424;SDS011;8830;50.978;5.058;2023-04-03T02:11:20;3.97;;;3.57;;
17424;SDS011;8830;50.978;5.058;2023-04-03T02:13:47;3.90;;;3.60;;
17424;SDS011;8830;50.978;5.058;2023-04-03T02:16:14;6.63;;;4.30;;
17424;SDS011;8830;50.978;5.058;2023-04-03T02:18:41;5.67;;;4.30;;
17424;SDS011;8830;50.978;5.058;2023-04-03T02:21:09;6.97;;;4.77;;
17424;SDS011;8830;50.978;5.058;2023-04-03T02:23:37;7.43;;;4.30;;
17424;SDS011;8830;50.978;5.058;2023-04-03T02:26:05;4.40;;;4.00;;
17424;SDS011;8830;50.978;5.058;2023-04-03T02:28:34;5.57;;;4.70;;
17424;SDS011;8830;50.978;5.058;2023-04-03T02:31:02;4.27;;;3.90;;
17424;SDS011;8830;50.978;5.058;2023-04-03T02:33:32;5.07;;;4.57;;
17424;SDS011;8830;50.978;5.058;2023-04-03T02:36:01;5.57;;;4.03;;
17424;SDS011;8830;50.978;5.058;2023-04-03T02:38:30;4.67;;;4.27;;
17424;SDS011;8830;50.978;5.058;2023-04-03T02:41:01;5.90;;;4.30;;
17424;SDS011;8830;50.978;5.058;2023-04-03T02:43:28;8.67;;;3.93;;
17424;SDS011;8830;50.978;5.058;2023-04-03T02:45:56;4.93;;;4.27;;
17424;SDS011;8830;50.978;5.058;2023-04-03T02:48:23;5.77;;;4.40;;
17424;SDS011;8830;50.978;5.058;2023-04-03T02:50:50;5.77;;;4.33;;
17424;SDS011;8830;50.978;5.058;2023-04-03T02:53:18;5.20;;;4.43;;
17424;SDS011;8830;50.978;5.058;2023-04-03T02:55:46;5.57;;;4.03;;
17424;SDS011;8830;50.978;5.058;2023-04-03T02:58:14;6.57;;;4.33;;
17424;SDS011;8830;50.978;5.058;2023-04-03T03:00:41;5.33;;;4.50;;
17424;SDS011;8830;50.978;5.058;2023-04-03T03:03:08;6.53;;;5.67;;
17424;SDS011;8830;50.978;5.058;2023-04-03T03:05:36;5.13;;;4.73;;
17424;SDS011;8830;50.978;5.058;2023-04-03T03:08:03;5.03;;;4.53;;
17424;SDS011;8830;50.978;5.058;2023-04-03T03:10:30;6.70;;;5.13;;
17424;SDS011;8830;50.978;5.058;2023-04-03T03:12:57;6.93;;;4.67;;
17424;SDS011;8830;50.978;5.058;2023-04-03T03:15:25;5.30;;;4.90;;
17424;SDS011;8830;50.978;5.058;2023-04-03T03:17:53;8.30;;;4.63;;
17424;SDS011;8830;50.978;5.058;2023-04-03T03:20:19;4.93;;;4.50;;
17424;SDS011;8830;50.978;5.058;2023-04-03T03:22:46;5.27;;;4.80;;
17424;SDS011;8830;50.978;5.058;2023-04-03T03:25:13;5.50;;;5.00;;
17424;SDS011;8830;50.978;5.058;2023-04-03T03:27:40;5.20;;;4.70;;
17424;SDS011;8830;50.978;5.058;2023-04-03T03:30:07;5.27;;;4.77;;
17424;SDS011;8830;50.978;5.058;2023-04-03T03:32:36;4.93;;;4.53;;
17424;SDS011;8830;50.978;5.058;2023-04-03T03:35:03;4.87;;;4.47;;
17424;SDS011;8830;50.978;5.058;2023-04-03T03:37:31;5.53;;;5.10;;
17424;SDS011;8830;50.978;5.058;2023-04-03T03:39:58;9.60;;;4.93;;
17424;SDS011;8830;50.978;5.058;2023-04-03T03:42:25;6.53;;;4.80;;
17424;SDS011;8830;50.978;5.058;2023-04-03T03:44:52;5.87;;;5.33;;
17424;SDS011;8830;50.978;5.058;2023-04-03T03:47:19;5.93;;;4.33;;
17424;SDS011;8830;50.978;5.058;2023-04-03T03:49:47;8.50;;;4.93;;
17424;SDS011;8830;50.978;5.058;2023-04-03T03:52:14;5.73;;;5.20;;
17424;SDS011;8830;50.978;5.058;2023-04-03T03:54:41;7.50;;;5.17;;
17424;SDS011;8830;50.978;5.058;2023-04-03T03:57:08;5.73;;;5.17;;
17424;SDS011;8830;50.978;5.058;2023-04-03T03:59:35;5.47;;;5.07;;
17424;SDS011;8830;50.978;5.058;2023-04-03T04:02:02;6.90;;;5.83;;
17424;SDS011;8830;50.978;5.058;2023-04-03T04:04:29;7.20;;;6.33;;
17424;SDS011;8830;50.978;5.058;2023-04-03T04:06:59;7.83;;;6.50;;
17424;SDS011;8830;50.978;5.058;2023-04-03T04:09:26;7.17;;;6.53;;
17424;SDS011;8830;50.978;5.058;2023-04-03T04:11:53;8.23;;;7.07;;
17424;SDS011;8830;50.978;5.058;2023-04-03T04:14:21;7.80;;;6.03;;
17424;SDS011;8830;50.978;5.058;2023-04-03T04:16:48;7.30;;;6.60;;
17424;SDS011;8830;50.978;5.058;2023-04-03T04:19:15;8.37;;;6.63;;
17424;SDS011;8830;50.978;5.058;2023-04-03T04:21:42;8.00;;;6.87;;
17424;SDS011;8830;50.978;5.058;2023-04-03T04:24:11;8.47;;;6.17;;
17424;SDS011;8830;50.978;5.058;2023-04-03T04:26:38;7.43;;;6.73;;
17424;SDS011;8830;50.978;5.058;2023-04-03T04:29:05;8.33;;;6.90;;
17424;SDS011;8830;50.978;5.058;2023-04-03T04:31:32;8.07;;;6.50;;
17424;SDS011;8830;50.978;5.058;2023-04-03T04:33:59;10.83;;;6.97;;
17424;SDS011;8830;50.978;5.058;2023-04-03T04:36:26;10.60;;;8.63;;
17424;SDS011;8830;50.978;5.058;2023-04-03T04:38:53;7.93;;;7.10;;
17424;SDS011;8830;50.978;5.058;2023-04-03T04:41:21;7.87;;;7.17;;
17424;SDS011;8830;50.978;5.058;2023-04-03T04:43:49;8.73;;;6.83;;
17424;SDS011;8830;50.978;5.058;2023-04-03T04:46:16;8.90;;;8.07;;
17424;SDS011;8830;50.978;5.058;2023-04-03T04:48:43;9.53;;;8.10;;
17424;SDS011;8830;50.978;5.058;2023-04-03T04:51:11;9.33;;;8.40;;
17424;SDS011;8830;50.978;5.058;2023-04-03T04:53:38;10.20;;;8.03;;
17424;SDS011;8830;50.978;5.058;2023-04-03T04:56:05;8.50;;;7.70;;
17424;SDS011;8830;50.978;5.058;2023-04-03T04:58:34;9.90;;;8.60;;
17424;SDS011;8830;50.978;5.058;2023-04-03T05:01:02;10.33;;;8.93;;
17424;SDS011;8830;50.978;5.058;2023-04-03T05:03:30;13.97;;;9.10;;
17424;SDS011;8830;50.978;5.058;2023-04-03T05:05:58;10.07;;;8.70;;
17424;SDS011;8830;50.978;5.058;2023-04-03T05:08:25;13.20;;;9.57;;
17424;SDS011;8830;50.978;5.058;2023-04-03T05:10:52;9.43;;;8.40;;
17424;SDS011;8830;50.978;5.058;2023-04-03T05:13:19;10.27;;;9.23;;
17424;SDS011;8830;50.978;5.058;2023-04-03T05:15:48;9.40;;;8.27;;
17424;SDS011;8830;50.978;5.058;2023-04-03T05:18:15;11.33;;;9.40;;
17424;SDS011;8830;50.978;5.058;2023-04-03T05:20:42;12.87;;;9.13;;
17424;SDS011;8830;50.978;5.058;2023-04-03T05:23:09;10.37;;;9.43;;
17424;SDS011;8830;50.978;5.058;2023-04-03T05:25:37;9.97;;;9.07;;
17424;SDS011;8830;50.978;5.058;2023-04-03T05:28:04;12.00;;;8.97;;
17424;SDS011;8830;50.978;5.058;2023-04-03T05:30:31;10.50;;;9.50;;
17424;SDS011;8830;50.978;5.058;2023-04-03T05:33:00;9.90;;;9.10;;
17424;SDS011;8830;50.978;5.058;2023-04-03T05:35:27;10.80;;;9.90;;
17424;SDS011;8830;50.978;5.058;2023-04-03T05:37:55;12.30;;;10.30;;
17424;SDS011;8830;50.978;5.058;2023-04-03T05:40:22;9.87;;;9.07;;
17424;SDS011;8830;50.978;5.058;2023-04-03T05:42:50;15.13;;;8.53;;
17424;SDS011;8830;50.978;5.058;2023-04-03T05:45:18;10.83;;;9.03;;
17424;SDS011;8830;50.978;5.058;2023-04-03T05:47:45;11.07;;;9.93;;
17424;SDS011;8830;50.978;5.058;2023-04-03T05:50:14;10.93;;;9.50;;
17424;SDS011;8830;50.978;5.058;2023-04-03T05:52:42;9.00;;;8.13;;
17424;SDS011;8830;50.978;5.058;2023-04-03T05:55:11;8.97;;;8.07;;
17424;SDS011;8830;50.978;5.058;2023-04-03T05:57:38;19.10;;;9.00;;
17424;SDS011;8830;50.978;5.058;2023-04-03T06:00:06;13.77;;;8.77;;
17424;SDS011;8830;50.978;5.058;2023-04-03T06:02:34;8.60;;;7.80;;
17424;SDS011;8830;50.978;5.058;2023-04-03T06:05:02;8.13;;;7.00;;
17424;SDS011;8830;50.978;5.058;2023-04-03T06:07:31;7.60;;;5.50;;
17424;SDS011;8830;50.978;5.058;2023-04-03T06:09:57;6.43;;;5.83;;
17424;SDS011;8830;50.978;5.058;2023-04-03T06:12:26;7.70;;;4.87;;
17424;SDS011;8830;50.978;5.058;2023-04-03T06:14:54;5.27;;;4.77;;
17424;SDS011;8830;50.978;5.058;2023-04-03T06:17:22;6.70;;;4.90;;
17424;SDS011;8830;50.978;5.058;2023-04-03T06:19:49;5.57;;;4.47;;
17424;SDS011;8830;50.978;5.058;2023-04-03T06:22:16;5.87;;;3.80;;
17424;SDS011;8830;50.978;5.058;2023-04-03T06:24:45;4.53;;;3.77;;
17424;SDS011;8830;50.978;5.058;2023-04-03T06:27:12;4.57;;;4.13;;
17424;SDS011;8830;50.978;5.058;2023-04-03T06:29:39;5.17;;;3.30;;
17424;SDS011;8830;50.978;5.058;2023-04-03T06:32:06;4.43;;;3.93;;
17424;SDS011;8830;50.978;5.058;2023-04-03T06:34:33;4.33;;;3.90;;
17424;SDS011;8830;50.978;5.058;2023-04-03T06:37:00;4.43;;;3.63;;
17424;SDS011;8830;50.978;5.058;2023-04-03T06:39:27;7.07;;;3.83;;
17424;SDS011;8830;50.978;5.058;2023-04-03T06:41:56;4.70;;;3.90;;
17424;SDS011;8830;50.978;5.058;2023-04-03T06:44:23;7.57;;;3.47;;
17424;SDS011;8830;50.978;5.058;2023-04-03T06:46:50;6.07;;;4.20;;
17424;SDS011;8830;50.978;5.058;2023-04-03T06:49:19;6.40;;;4.07;;
17424;SDS011;8830;50.978;5.058;2023-04-03T06:51:46;7.70;;;4.10;;
17424;SDS011;8830;50.978;5.058;2023-04-03T06:54:13;3.50;;;3.10;;
17424;SDS011;8830;50.978;5.058;2023-04-03T06:56:41;5.13;;;3.63;;
17424;SDS011;8830;50.978;5.058;2023-04-03T06:59:10;4.03;;;3.40;;
17424;SDS011;8830;50.978;5.058;2023-04-03T07:01:42;4.57;;;3.43;;
17424;SDS011;8830;50.978;5.058;2023-04-03T07:04:09;3.83;;;3.20;;
17424;SDS011;8830;50.978;5.058;2023-04-03T07:06:36;3.33;;;3.03;;
17424;SDS011;8830;50.978;5.058;2023-04-03T07:09:04;5.87;;;3.73;;
17424;SDS011;8830;50.978;5.058;2023-04-03T07:11:32;4.07;;;2.83;;
17424;SDS011;8830;50.978;5.058;2023-04-03T07:13:59;4.63;;;2.47;;
17424;SDS011;8830;50.978;5.058;2023-04-03T07:16:28;4.57;;;3.50;;
17424;SDS011;8830;50.978;5.058;2023-04-03T07:18:56;3.43;;;2.43;;
17424;SDS011;8830;50.978;5.058;2023-04-03T07:21:23;3.67;;;3.30;;
17424;SDS011;8830;50.978;5.058;2023-04-03T07:23:51;3.97;;;2.90;;
17424;SDS011;8830;50.978;5.058;2023-04-03T07:26:18;3.17;;;2.80;;
17424;SDS011;8830;50.978;5.058;2023-04-03T07:28:46;3.53;;;3.00;;
17424;SDS011;8830;50.978;5.058;2023-04-03T07:31:13;3.10;;;2.80;;
17424;SDS011;8830;50.978;5.058;2023-04-03T07:33:43;6.67;;;3.43;;
17424;SDS011;8830;50.978;5.058;2023-04-03T07:36:12;3.63;;;2.50;;
17424;SDS011;8830;50.978;5.058;2023-04-03T07:38:42;3.70;;;3.00;;
17424;SDS011;8830;50.978;5.058;2023-04-03T07:41:11;3.93;;;2.90;;
17424;SDS011;8830;50.978;5.058;2023-04-03T07:43:40;3.63;;;2.93;;
17424;SDS011;8830;50.978;5.058;2023-04-03T07:46:07;4.87;;;2.93;;
17424;SDS011;8830;50.978;5.058;2023-04-03T07:48:35;4.33;;;2.60;;
17424;SDS011;8830;50.978;5.058;2023-04-03T07:51:04;4.17;;;3.00;;
17424;SDS011;8830;50.978;5.058;2023-04-03T07:53:31;3.90;;;2.30;;
17424;SDS011;8830;50.978;5.058;2023-04-03T07:56:00;3.60;;;2.90;;
17424;SDS011;8830;50.978;5.058;2023-04-03T07:58:28;2.60;;;2.30;;
17424;SDS011;8830;50.978;5.058;2023-04-03T08:00:55;2.73;;;2.03;;
17424;SDS011;8830;50.978;5.058;2023-04-03T08:03:22;3.60;;;2.73;;
17424;SDS011;8830;50.978;5.058;2023-04-03T08:05:50;4.10;;;3.00;;
17424;SDS011;8830;50.978;5.058;2023-04-03T08:08:20;3.60;;;2.33;;
17424;SDS011;8830;50.978;5.058;2023-04-03T08:10:49;3.93;;;3.03;;
17424;SDS011;8830;50.978;5.058;2023-04-03T08:13:17;4.43;;;3.17;;
17424;SDS011;8830;50.978;5.058;2023-04-03T08:15:45;3.73;;;2.60;;
17424;SDS011;8830;50.978;5.058;2023-04-03T08:18:13;3.83;;;2.43;;
17424;SDS011;8830;50.978;5.058;2023-04-03T08:20:40;4.13;;;2.77;;
17424;SDS011;8830;50.978;5.058;2023-04-03T08:23:08;3.00;;;2.40;;
17424;SDS011;8830;50.978;5.058;2023-04-03T08:25:38;4.47;;;2.47;;
17424;SDS011;8830;50.978;5.058;2023-04-03T08:28:06;3.80;;;2.50;;
17424;SDS011;8830;50.978;5.058;2023-04-03T08:30:33;2.77;;;2.00;;
17424;SDS011;8830;50.978;5.058;2023-04-03T08:33:00;3.60;;;2.30;;
17424;SDS011;8830;50.978;5.058;2023-04-03T08:35:28;5.13;;;2.30;;
17424;SDS011;8830;50.978;5.058;2023-04-03T08:37:55;3.37;;;2.57;;
17424;SDS011;8830;50.978;5.058;2023-04-03T08:40:22;4.40;;;2.23;;
17424;SDS011;8830;50.978;5.058;2023-04-03T08:42:54;6.43;;;2.10;;
17424;SDS011;8830;50.978;5.058;2023-04-03T08:45:35;3.33;;;2.67;;
17424;SDS011;8830;50.978;5.058;2023-04-03T08:48:11;4.37;;;2.30;;
17424;SDS011;8830;50.978;5.058;2023-04-03T08:50:43;2.57;;;2.30;;
17424;SDS011;8830;50.978;5.058;2023-04-03T08:53:14;5.00;;;2.50;;
17424;SDS011;8830;50.978;5.058;2023-04-03T08:55:44;3.30;;;2.30;;
17424;SDS011;8830;50.978;5.058;2023-04-03T08:58:16;4.23;;;2.23;;
17424;SDS011;8830;50.978;5.058;2023-04-03T09:00:46;4.23;;;2.27;;
17424;SDS011;8830;50.978;5.058;2023-04-03T09:03:16;2.60;;;2.30;;
17424;SDS011;8830;50.978;5.058;2023-04-03T09:05:46;3.63;;;1.87;;
17424;SDS011;8830;50.978;5.058;2023-04-03T09:08:21;3.87;;;2.60;;
17424;SDS011;8830;50.978;5.058;2023-04-03T09:10:51;3.17;;;2.03;;
17424;SDS011;8830;50.978;5.058;2023-04-03T09:13:34;2.67;;;1.90;;
17424;SDS011;8830;50.978;5.058;2023-04-03T09:16:15;5.53;;;2.90;;
17424;SDS011;8830;50.978;5.058;2023-04-03T09:18:54;4.27;;;2.37;;
17424;SDS011;8830;50.978;5.058;2023-04-03T09:21:28;4.23;;;2.07;;
17424;SDS011;8830;50.978;5.058;2023-04-03T09:24:01;3.13;;;1.97;;
17424;SDS011;8830;50.978;5.058;2023-04-03T09:26:31;4.27;;;2.37;;
17424;SDS011;8830;50.978;5.058;2023-04-03T09:29:06;2.43;;;2.23;;
17424;SDS011;8830;50.978;5.058;2023-04-03T09:31:35;2.83;;;1.80;;
17424;SDS011;8830;50.978;5.058;2023-04-03T09:34:06;5.27;;;1.80;;
17424;SDS011;8830;50.978;5.058;2023-04-03T09:36:43;2.30;;;1.67;;
17424;SDS011;8830;50.978;5.058;2023-04-03T09:39:12;4.63;;;1.67;;
17424;SDS011;8830;50.978;5.058;2023-04-03T09:41:41;2.37;;;1.57;;
17424;SDS011;8830;50.978;5.058;2023-04-03T09:44:22;2.60;;;1.43;;
17424;SDS011;8830;50.978;5.058;2023-04-03T09:46:51;4.50;;;1.80;;
17424;SDS011;8830;50.978;5.058;2023-04-03T09:49:20;5.00;;;1.63;;
17424;SDS011;8830;50.978;5.058;2023-04-03T09:51:47;3.60;;;1.60;;
17424;SDS011;8830;50.978;5.058;2023-04-03T09:54:31;2.17;;;1.40;;
17424;SDS011;8830;50.978;5.058;2023-04-03T09:57:02;2.97;;;1.33;;
17424;SDS011;8830;50.978;5.058;2023-04-03T09:59:34;4.23;;;1.57;;
17424;SDS011;8830;50.978;5.058;2023-04-03T10:02:21;2.70;;;1.53;;
17424;SDS011;8830;50.978;5.058;2023-04-03T10:10:48;3.10;;;1.40;;
17424;SDS011;8830;50.978;5.058;2023-04-03T10:13:30;3.00;;;1.77;;
17424;SDS011;8830;50.978;5.058;2023-04-03T10:16:00;3.63;;;1.23;;
17424;SDS011;8830;50.978;5.058;2023-04-03T10:18:36;3.67;;;1.53;;
17424;SDS011;8830;50.978;5.058;2023-04-03T10:21:10;2.33;;;1.40;;
17424;SDS011;8830;50.978;5.058;2023-04-03T10:23:42;3.57;;;1.40;;
17424;SDS011;8830;50.978;5.058;2023-04-03T10:26:17;2.90;;;1.53;;
17424;SDS011;8830;50.978;5.058;2023-04-03T10:28:56;1.77;;;1.40;;
17424;SDS011;8830;50.978;5.058;2023-04-03T10:31:29;2.53;;;1.67;;
17424;SDS011;8830;50.978;5.058;2023-04-03T10:34:04;1.93;;;1.20;;
17424;SDS011;8830;50.978;5.058;2023-04-03T10:36:38;3.17;;;1.20;;
17424;SDS011;8830;50.978;5.058;2023-04-03T10:39:14;1.80;;;1.27;;
17424;SDS011;8830;50.978;5.058;2023-04-03T10:41:55;2.97;;;1.10;;
17424;SDS011;8830;50.978;5.058;2023-04-03T10:44:30;2.13;;;1.03;;
17424;SDS011;8830;50.978;5.058;2023-04-03T10:47:06;1.57;;;1.33;;
17424;SDS011;8830;50.978;5.058;2023-04-03T10:49:42;3.03;;;1.07;;
17424;SDS011;8830;50.978;5.058;2023-04-03T10:52:17;1.27;;;1.10;;
17424;SDS011;8830;50.978;5.058;2023-04-03T10:54:50;2.47;;;1.30;;
17424;SDS011;8830;50.978;5.058;2023-04-03T10:57:25;3.63;;;1.40;;
17424;SDS011;8830;50.978;5.058;2023-04-03T10:59:55;2.63;;;1.03;;
17424;SDS011;8830;50.978;5.058;2023-04-03T11:02:29;1.40;;;0.83;;
17424;SDS011;8830;50.978;5.058;2023-04-03T11:05:00;2.73;;;1.33;;
17424;SDS011;8830;50.978;5.058;2023-04-03T11:07:36;1.50;;;0.90;;
17424;SDS011;8830;50.978;5.058;2023-04-03T11:10:09;3.83;;;1.27;;
17424;SDS011;8830;50.978;5.058;2023-04-03T11:12:42;2.37;;;1.20;;
17424;SDS011;8830;50.978;5.058;2023-04-03T11:15:11;1.80;;;1.07;;
17424;SDS011;8830;50.978;5.058;2023-04-03T11:17:43;2.00;;;0.93;;
17424;SDS011;8830;50.978;5.058;2023-04-03T11:20:17;2.57;;;1.20;;
17424;SDS011;8830;50.978;5.058;2023-04-03T11:22:47;2.73;;;1.10;;
17424;SDS011;8830;50.978;5.058;2023-04-03T11:25:19;1.83;;;0.90;;
17424;SDS011;8830;50.978;5.058;2023-04-03T11:27:49;3.17;;;2.50;;
17424;SDS011;8830;50.978;5.058;2023-04-03T11:30:22;0.97;;;0.87;;
17424;SDS011;8830;50.978;5.058;2023-04-03T11:33:04;3.93;;;0.80;;
17424;SDS011;8830;50.978;5.058;2023-04-03T11:35:43;1.60;;;0.70;;
17424;SDS011;8830;50.978;5.058;2023-04-03T11:38:14;1.83;;;0.93;;
17424;SDS011;8830;50.978;5.058;2023-04-03T11:40:47;1.63;;;0.80;;
17424;SDS011;8830;50.978;5.058;2023-04-03T11:43:21;3.57;;;0.97;;
17424;SDS011;8830;50.978;5.058;2023-04-03T11:45:52;3.67;;;1.00;;
17424;SDS011;8830;50.978;5.058;2023-04-03T12:12:41;4.43;;;1.37;;
17424;SDS011;8830;50.978;5.058;2023-04-03T12:15:18;3.27;;;1.90;;
17424;SDS011;8830;50.978;5.058;2023-04-03T12:21:07;1.63;;;1.30;;
17424;SDS011;8830;50.978;5.058;2023-04-03T12:23:36;1.80;;;1.17;;
17424;SDS011;8830;50.978;5.058;2023-04-03T12:26:24;2.90;;;1.30;;
17424;SDS011;8830;50.978;5.058;2023-04-03T12:28:52;1.57;;;0.90;;
17424;SDS011;8830;50.978;5.058;2023-04-03T12:31:22;2.60;;;1.23;;
17424;SDS011;8830;50.978;5.058;2023-04-03T12:34:00;1.13;;;1.03;;
17424;SDS011;8830;50.978;5.058;2023-04-03T12:36:41;3.93;;;1.00;;
17424;SDS011;8830;50.978;5.058;2023-04-03T12:39:18;1.53;;;0.70;;
17424;SDS011;8830;50.978;5.058;2023-04-03T12:42:05;1.57;;;0.97;;
17424;SDS011;8830;50.978;5.058;2023-04-03T12:44:45;2.17;;;1.00;;
17424;SDS011;8830;50.978;5.058;2023-04-03T12:47:22;1.40;;;1.30;;
17424;SDS011;8830;50.978;5.058;2023-04-03T12:49:52;2.70;;;1.23;;
17424;SDS011;8830;50.978;5.058;2023-04-03T12:52:22;2.67;;;1.03;;
17424;SDS011;8830;50.978;5.058;2023-04-03T12:54:59;1.60;;;0.80;;
17424;SDS011;8830;50.978;5.058;2023-04-03T12:57:29;1.83;;;1.13;;
17424;SDS011;8830;50.978;5.058;2023-04-03T12:59:57;1.00;;;0.90;;
17424;SDS011;8830;50.978;5.058;2023-04-03T13:02:26;2.40;;;0.97;;
17424;SDS011;8830;50.978;5.058;2023-04-03T13:04:54;1.90;;;1.00;;
17424;SDS011;8830;50.978;5.058;2023-04-03T13:07:25;3.23;;;1.03;;
17424;SDS011;8830;50.978;5.058;2023-04-03T13:10:13;2.57;;;0.77;;
17424;SDS011;8830;50.978;5.058;2023-04-03T13:12:46;1.00;;;0.80;;
17424;SDS011;8830;50.978;5.058;2023-04-03T13:15:15;2.33;;;1.00;;
17424;SDS011;8830;50.978;5.058;2023-04-03T13:17:45;1.17;;;1.03;;
17424;SDS011;8830;50.978;5.058;2023-04-03T13:20:17;2.43;;;0.97;;
17424;SDS011;8830;50.978;5.058;2023-04-03T13:22:50;1.57;;;0.97;;
17424;SDS011;8830;50.978;5.058;2023-04-03T13:25:23;1.30;;;0.90;;
17424;SDS011;8830;50.978;5.058;2023-04-03T13:27:52;2.00;;;1.20;;
17424;SDS011;8830;50.978;5.058;2023-04-03T13:30:21;2.03;;;1.40;;
17424;SDS011;8830;50.978;5.058;2023-04-03T13:32:51;1.20;;;1.00;;
17424;SDS011;8830;50.978;5.058;2023-04-03T13:35:26;2.37;;;1.17;;
17424;SDS011;8830;50.978;5.058;2023-04-03T13:37:56;2.13;;;0.97;;
17424;SDS011;8830;50.978;5.058;2023-04-03T13:40:25;2.80;;;1.00;;
17424;SDS011;8830;50.978;5.058;2023-04-03T13:42:59;1.47;;;1.37;;
17424;SDS011;8830;50.978;5.058;2023-04-03T13:45:34;0.87;;;0.83;;
17424;SDS011;8830;50.978;5.058;2023-04-03T13:48:16;2.90;;;1.67;;
17424;SDS011;8830;50.978;5.058;2023-04-03T13:50:54;1.90;;;1.07;;
17424;SDS011;8830;50.978;5.058;2023-04-03T13:53:27;3.70;;;1.20;;
17424;SDS011;8830;50.978;5.058;2023-04-03T13:55:59;4.97;;;1.20;;
17424;SDS011;8830;50.978;5.058;2023-04-03T13:58:32;3.07;;;1.07;;
17424;SDS011;8830;50.978;5.058;2023-04-03T14:01:07;2.23;;;1.10;;
17424;SDS011;8830;50.978;5.058;2023-04-03T14:03:39;1.03;;;1.03;;
17424;SDS011;8830;50.978;5.058;2023-04-03T14:06:10;1.40;;;1.03;;
17424;SDS011;8830;50.978;5.058;2023-04-03T14:08:39;1.07;;;0.90;;
17424;SDS011;8830;50.978;5.058;2023-04-03T14:11:10;2.57;;;1.00;;
17424;SDS011;8830;50.978;5.058;2023-04-03T14:13:40;1.43;;;1.10;;
17424;SDS011;8830;50.978;5.058;2023-04-03T14:16:11;1.50;;;1.17;;
17424;SDS011;8830;50.978;5.058;2023-04-03T14:18:40;1.77;;;1.23;;
17424;SDS011;8830;50.978;5.058;2023-04-03T14:21:08;1.80;;;1.50;;
17424;SDS011;8830;50.978;5.058;2023-04-03T14:23:37;1.63;;;1.23;;
17424;SDS011;8830;50.978;5.058;2023-04-03T14:26:04;3.63;;;1.43;;
17424;SDS011;8830;50.978;5.058;2023-04-03T14:28:38;2.53;;;1.40;;
17424;SDS011;8830;50.978;5.058;2023-04-03T14:31:05;1.43;;;1.30;;
17424;SDS011;8830;50.978;5.058;2023-04-03T14:33:36;2.40;;;1.30;;
17424;SDS011;8830;50.978;5.058;2023-04-03T14:36:05;2.57;;;1.60;;
17424;SDS011;8830;50.978;5.058;2023-04-03T14:38:39;2.20;;;1.63;;
17424;SDS011;8830;50.978;5.058;2023-04-03T14:41:09;2.57;;;1.37;;
17424;SDS011;8830;50.978;5.058;2023-04-03T14:43:39;4.23;;;1.90;;
17424;SDS011;8830;50.978;5.058;2023-04-03T14:46:09;2.00;;;1.40;;
17424;SDS011;8830;50.978;5.058;2023-04-03T14:48:40;2.40;;;1.33;;
17424;SDS011;8830;50.978;5.058;2023-04-03T14:51:08;3.00;;;1.47;;
17424;SDS011;8830;50.978;5.058;2023-04-03T14:53:38;1.63;;;1.10;;
17424;SDS011;8830;50.978;5.058;2023-04-03T14:56:24;2.63;;;1.50;;
17424;SDS011;8830;50.978;5.058;2023-04-03T14:58:56;2.60;;;1.50;;
17424;SDS011;8830;50.978;5.058;2023-04-03T15:01:24;1.63;;;1.53;;
17424;SDS011;8830;50.978;5.058;2023-04-03T15:03:52;3.97;;;1.50;;
17424;SDS011;8830;50.978;5.058;2023-04-03T15:06:19;2.30;;;1.50;;
17424;SDS011;8830;50.978;5.058;2023-04-03T15:08:47;2.30;;;1.33;;
17424;SDS011;8830;50.978;5.058;2023-04-03T15:11:17;2.10;;;1.30;;
17424;SDS011;8830;50.978;5.058;2023-04-03T15:13:45;2.43;;;1.70;;
17424;SDS011;8830;50.978;5.058;2023-04-03T15:16:12;2.43;;;1.43;;
17424;SDS011;8830;50.978;5.058;2023-04-03T15:18:43;2.37;;;1.40;;
17424;SDS011;8830;50.978;5.058;2023-04-03T15:21:11;3.97;;;2.00;;
17424;SDS011;8830;50.978;5.058;2023-04-03T15:23:38;2.47;;;1.33;;
17424;SDS011;8830;50.978;5.058;2023-04-03T15:26:07;2.90;;;1.20;;
17424;SDS011;8830;50.978;5.058;2023-04-03T15:28:34;6.10;;;1.67;;
17424;SDS011;8830;50.978;5.058;2023-04-03T15:31:05;1.77;;;1.43;;
17424;SDS011;8830;50.978;5.058;2023-04-03T15:33:33;2.63;;;1.57;;
17424;SDS011;8830;50.978;5.058;2023-04-03T15:36:01;4.13;;;1.70;;
17424;SDS011;8830;50.978;5.058;2023-04-03T15:38:30;2.53;;;1.53;;
17424;SDS011;8830;50.978;5.058;2023-04-03T15:40:57;2.67;;;1.20;;
17424;SDS011;8830;50.978;5.058;2023-04-03T15:43:25;3.07;;;1.83;;
17424;SDS011;8830;50.978;5.058;2023-04-03T15:45:55;1.57;;;1.47;;
17424;SDS011;8830;50.978;5.058;2023-04-03T15:48:25;2.30;;;1.50;;
17424;SDS011;8830;50.978;5.058;2023-04-03T15:50:53;2.97;;;1.37;;